sensor_id;sensor_type;location;lat;lon;timestamp;P1;durP1;ratioP1;P2;durP2;ratioP2
65387;SDS011;51992;53.528;49.474;2022-11-15T00:00:47;6.68;;;2.65;;
65387;SDS011;51992;53.528;49.474;2022-11-15T00:03:18;7.50;;;3.05;;
65387;SDS011;51992;53.528;49.474;2022-11-15T00:05:44;9.65;;;3.55;;
65387;SDS011;51992;53.528;49.474;2022-11-15T00:08:10;11.68;;;5.05;;
65387;SDS011;51992;53.528;49.474;2022-11-15T00:10:36;8.20;;;3.45;;
65387;SDS011;51992;53.528;49.474;2022-11-15T00:13:06;2.72;;;1.40;;
65387;SDS011;51992;53.528;49.474;2022-11-15T00:15:33;11.82;;;4.50;;
65387;SDS011;51992;53.528;49.474;2022-11-15T00:17:59;6.60;;;3.15;;
65387;SDS011;51992;53.528;49.474;2022-11-15T00:20:25;7.93;;;3.58;;
65387;SDS011;51992;53.528;49.474;2022-11-15T00:22:51;3.35;;;1.80;;
65387;SDS011;51992;53.528;49.474;2022-11-15T00:25:16;6.70;;;2.97;;
65387;SDS011;51992;53.528;49.474;2022-11-15T00:27:42;5.20;;;3.10;;
65387;SDS011;51992;53.528;49.474;2022-11-15T00:30:08;12.98;;;4.10;;
65387;SDS011;51992;53.528;49.474;2022-11-15T00:32:34;9.75;;;3.22;;
65387;SDS011;51992;53.528;49.474;2022-11-15T00:34:59;7.43;;;3.22;;
65387;SDS011;51992;53.528;49.474;2022-11-15T00:37:25;5.35;;;3.15;;
65387;SDS011;51992;53.528;49.474;2022-11-15T00:39:51;2.15;;;1.92;;
65387;SDS011;51992;53.528;49.474;2022-11-15T00:42:17;4.45;;;2.58;;
65387;SDS011;51992;53.528;49.474;2022-11-15T00:44:42;6.45;;;3.30;;
65387;SDS011;51992;53.528;49.474;2022-11-15T00:47:08;3.88;;;1.67;;
65387;SDS011;51992;53.528;49.474;2022-11-15T00:49:34;1.95;;;1.08;;
65387;SDS011;51992;53.528;49.474;2022-11-15T00:51:59;6.22;;;3.33;;
65387;SDS011;51992;53.528;49.474;2022-11-15T00:54:25;7.80;;;2.97;;
65387;SDS011;51992;53.528;49.474;2022-11-15T00:56:51;6.90;;;3.15;;
65387;SDS011;51992;53.528;49.474;2022-11-15T00:59:16;9.57;;;3.75;;
65387;SDS011;51992;53.528;49.474;2022-11-15T01:01:42;5.85;;;3.20;;
65387;SDS011;51992;53.528;49.474;2022-11-15T01:04:08;7.18;;;3.30;;
65387;SDS011;51992;53.528;49.474;2022-11-15T01:06:33;7.82;;;3.75;;
65387;SDS011;51992;53.528;49.474;2022-11-15T01:08:59;10.30;;;3.47;;
65387;SDS011;51992;53.528;49.474;2022-11-15T01:11:25;5.25;;;3.03;;
65387;SDS011;51992;53.528;49.474;2022-11-15T01:13:50;5.28;;;2.83;;
65387;SDS011;51992;53.528;49.474;2022-11-15T01:16:17;10.55;;;4.63;;
65387;SDS011;51992;53.528;49.474;2022-11-15T01:18:44;8.45;;;3.20;;
65387;SDS011;51992;53.528;49.474;2022-11-15T01:21:11;6.95;;;3.25;;
65387;SDS011;51992;53.528;49.474;2022-11-15T01:23:37;5.28;;;2.55;;
65387;SDS011;51992;53.528;49.474;2022-11-15T01:26:04;8.88;;;3.38;;
65387;SDS011;51992;53.528;49.474;2022-11-15T01:28:31;8.27;;;3.97;;
65387;SDS011;51992;53.528;49.474;2022-11-15T01:31:00;9.65;;;4.03;;
65387;SDS011;51992;53.528;49.474;2022-11-15T01:33:27;7.35;;;3.90;;
65387;SDS011;51992;53.528;49.474;2022-11-15T01:35:53;12.75;;;4.93;;
65387;SDS011;51992;53.528;49.474;2022-11-15T01:38:19;7.63;;;3.75;;
65387;SDS011;51992;53.528;49.474;2022-11-15T01:40:44;6.57;;;2.65;;
65387;SDS011;51992;53.528;49.474;2022-11-15T01:43:23;6.35;;;2.30;;
65387;SDS011;51992;53.528;49.474;2022-11-15T01:45:51;6.80;;;3.35;;
65387;SDS011;51992;53.528;49.474;2022-11-15T01:48:18;2.13;;;1.20;;
65387;SDS011;51992;53.528;49.474;2022-11-15T01:50:44;1.83;;;0.90;;
65387;SDS011;51992;53.528;49.474;2022-11-15T01:53:10;6.55;;;3.03;;
65387;SDS011;51992;53.528;49.474;2022-11-15T01:55:36;10.25;;;5.40;;
65387;SDS011;51992;53.528;49.474;2022-11-15T01:58:02;7.20;;;2.58;;
65387;SDS011;51992;53.528;49.474;2022-11-15T02:00:29;5.00;;;2.78;;
65387;SDS011;51992;53.528;49.474;2022-11-15T02:02:55;7.88;;;3.38;;
65387;SDS011;51992;53.528;49.474;2022-11-15T02:05:21;7.43;;;3.35;;
65387;SDS011;51992;53.528;49.474;2022-11-15T02:07:46;5.63;;;2.95;;
65387;SDS011;51992;53.528;49.474;2022-11-15T02:10:16;7.43;;;3.13;;
65387;SDS011;51992;53.528;49.474;2022-11-15T02:12:42;5.45;;;2.67;;
65387;SDS011;51992;53.528;49.474;2022-11-15T02:15:08;6.32;;;3.25;;
65387;SDS011;51992;53.528;49.474;2022-11-15T02:25:06;2.60;;;1.65;;
65387;SDS011;51992;53.528;49.474;2022-11-15T02:30:43;13.13;;;3.33;;
65387;SDS011;51992;53.528;49.474;2022-11-15T02:33:14;9.30;;;4.40;;
65387;SDS011;51992;53.528;49.474;2022-11-15T02:38:20;12.88;;;5.57;;
65387;SDS011;51992;53.528;49.474;2022-11-15T02:40:59;20.00;;;4.57;;
65387;SDS011;51992;53.528;49.474;2022-11-15T02:43:47;10.57;;;3.45;;
65387;SDS011;51992;53.528;49.474;2022-11-15T02:46:29;2.78;;;1.52;;
65387;SDS011;51992;53.528;49.474;2022-11-15T02:49:14;9.20;;;3.90;;
65387;SDS011;51992;53.528;49.474;2022-11-15T02:51:40;9.60;;;3.38;;
65387;SDS011;51992;53.528;49.474;2022-11-15T02:54:09;3.15;;;1.58;;
65387;SDS011;51992;53.528;49.474;2022-11-15T02:56:36;11.23;;;4.40;;
65387;SDS011;51992;53.528;49.474;2022-11-15T03:07:06;13.02;;;5.00;;
65387;SDS011;51992;53.528;49.474;2022-11-15T03:12:28;7.50;;;3.90;;
65387;SDS011;51992;53.528;49.474;2022-11-15T03:15:00;8.98;;;4.32;;
65387;SDS011;51992;53.528;49.474;2022-11-15T03:19:56;2.72;;;1.50;;
65387;SDS011;51992;53.528;49.474;2022-11-15T03:22:23;9.77;;;4.22;;
65387;SDS011;51992;53.528;49.474;2022-11-15T03:24:51;10.05;;;4.32;;
65387;SDS011;51992;53.528;49.474;2022-11-15T03:27:19;4.35;;;2.30;;
65387;SDS011;51992;53.528;49.474;2022-11-15T03:29:47;14.35;;;4.05;;
65387;SDS011;51992;53.528;49.474;2022-11-15T03:32:19;9.90;;;4.65;;
65387;SDS011;51992;53.528;49.474;2022-11-15T03:37:11;8.13;;;3.38;;
65387;SDS011;51992;53.528;49.474;2022-11-15T03:39:39;8.10;;;3.03;;
65387;SDS011;51992;53.528;49.474;2022-11-15T03:44:47;8.15;;;3.42;;
65387;SDS011;51992;53.528;49.474;2022-11-15T03:49:42;18.42;;;4.80;;
65387;SDS011;51992;53.528;49.474;2022-11-15T03:52:09;15.90;;;9.35;;
65387;SDS011;51992;53.528;49.474;2022-11-15T03:54:35;23.63;;;8.85;;
65387;SDS011;51992;53.528;49.474;2022-11-15T03:57:01;9.43;;;3.95;;
65387;SDS011;51992;53.528;49.474;2022-11-15T03:59:27;9.30;;;3.75;;
65387;SDS011;51992;53.528;49.474;2022-11-15T04:01:52;8.98;;;3.80;;
65387;SDS011;51992;53.528;49.474;2022-11-15T04:04:18;25.27;;;12.52;;
65387;SDS011;51992;53.528;49.474;2022-11-15T04:06:44;16.17;;;9.10;;
65387;SDS011;51992;53.528;49.474;2022-11-15T04:09:09;22.30;;;12.93;;
65387;SDS011;51992;53.528;49.474;2022-11-15T04:11:35;50.03;;;28.58;;
65387;SDS011;51992;53.528;49.474;2022-11-15T04:14:01;50.03;;;28.45;;
65387;SDS011;51992;53.528;49.474;2022-11-15T04:16:26;60.03;;;33.60;;
65387;SDS011;51992;53.528;49.474;2022-11-15T04:18:52;37.00;;;21.55;;
65387;SDS011;51992;53.528;49.474;2022-11-15T04:21:36;33.95;;;18.17;;
65387;SDS011;51992;53.528;49.474;2022-11-15T04:24:21;33.55;;;18.50;;
65387;SDS011;51992;53.528;49.474;2022-11-15T04:26:46;24.25;;;10.77;;
65387;SDS011;51992;53.528;49.474;2022-11-15T04:29:12;23.42;;;12.32;;
65387;SDS011;51992;53.528;49.474;2022-11-15T04:31:56;9.95;;;6.13;;
65387;SDS011;51992;53.528;49.474;2022-11-15T04:34:22;7.72;;;4.68;;
65387;SDS011;51992;53.528;49.474;2022-11-15T04:36:48;11.15;;;5.63;;
65387;SDS011;51992;53.528;49.474;2022-11-15T04:39:32;17.38;;;7.18;;
65387;SDS011;51992;53.528;49.474;2022-11-15T04:41:58;15.10;;;9.23;;
65387;SDS011;51992;53.528;49.474;2022-11-15T04:44:24;30.92;;;19.20;;
65387;SDS011;51992;53.528;49.474;2022-11-15T04:46:49;30.77;;;18.80;;
65387;SDS011;51992;53.528;49.474;2022-11-15T04:49:15;27.92;;;17.45;;
65387;SDS011;51992;53.528;49.474;2022-11-15T04:51:41;16.98;;;8.32;;
65387;SDS011;51992;53.528;49.474;2022-11-15T04:54:06;8.23;;;5.10;;
65387;SDS011;51992;53.528;49.474;2022-11-15T04:56:32;21.48;;;8.90;;
65387;SDS011;51992;53.528;49.474;2022-11-15T04:58:58;12.63;;;4.60;;
65387;SDS011;51992;53.528;49.474;2022-11-15T05:01:23;14.75;;;6.47;;
65387;SDS011;51992;53.528;49.474;2022-11-15T05:03:49;16.02;;;9.82;;
65387;SDS011;51992;53.528;49.474;2022-11-15T05:06:33;16.20;;;7.38;;
65387;SDS011;51992;53.528;49.474;2022-11-15T05:08:59;7.78;;;3.50;;
65387;SDS011;51992;53.528;49.474;2022-11-15T05:11:25;17.50;;;8.68;;
65387;SDS011;51992;53.528;49.474;2022-11-15T05:13:52;13.68;;;5.13;;
65387;SDS011;51992;53.528;49.474;2022-11-15T05:16:18;11.50;;;5.47;;
65387;SDS011;51992;53.528;49.474;2022-11-15T05:18:44;10.48;;;5.85;;
65387;SDS011;51992;53.528;49.474;2022-11-15T05:21:10;4.57;;;3.20;;
65387;SDS011;51992;53.528;49.474;2022-11-15T05:23:39;9.32;;;4.00;;
65387;SDS011;51992;53.528;49.474;2022-11-15T05:26:05;12.98;;;4.55;;
65387;SDS011;51992;53.528;49.474;2022-11-15T05:28:32;29.35;;;16.33;;
65387;SDS011;51992;53.528;49.474;2022-11-15T05:31:01;46.15;;;25.15;;
65387;SDS011;51992;53.528;49.474;2022-11-15T05:33:27;25.90;;;15.27;;
65387;SDS011;51992;53.528;49.474;2022-11-15T05:38:37;10.48;;;3.60;;
65387;SDS011;51992;53.528;49.474;2022-11-15T05:41:03;4.65;;;2.38;;
65387;SDS011;51992;53.528;49.474;2022-11-15T05:43:29;7.40;;;3.67;;
65387;SDS011;51992;53.528;49.474;2022-11-15T05:45:56;5.90;;;3.20;;
65387;SDS011;51992;53.528;49.474;2022-11-15T05:48:22;11.57;;;2.58;;
65387;SDS011;51992;53.528;49.474;2022-11-15T05:50:48;34.80;;;18.67;;
65387;SDS011;51992;53.528;49.474;2022-11-15T05:53:15;30.30;;;15.35;;
65387;SDS011;51992;53.528;49.474;2022-11-15T05:55:42;26.30;;;13.40;;
65387;SDS011;51992;53.528;49.474;2022-11-15T05:58:08;22.70;;;12.15;;
65387;SDS011;51992;53.528;49.474;2022-11-15T06:00:34;27.83;;;17.05;;
65387;SDS011;51992;53.528;49.474;2022-11-15T06:03:00;40.58;;;21.77;;
65387;SDS011;51992;53.528;49.474;2022-11-15T06:05:26;14.43;;;7.25;;
65387;SDS011;51992;53.528;49.474;2022-11-15T06:07:52;13.57;;;6.35;;
65387;SDS011;51992;53.528;49.474;2022-11-15T06:10:17;5.35;;;2.90;;
65387;SDS011;51992;53.528;49.474;2022-11-15T06:12:43;13.07;;;3.60;;
65387;SDS011;51992;53.528;49.474;2022-11-15T06:15:09;10.93;;;3.70;;
65387;SDS011;51992;53.528;49.474;2022-11-15T06:17:34;2.42;;;1.17;;
65387;SDS011;51992;53.528;49.474;2022-11-15T06:20:00;4.28;;;1.55;;
65387;SDS011;51992;53.528;49.474;2022-11-15T06:22:26;7.43;;;3.10;;
65387;SDS011;51992;53.528;49.474;2022-11-15T06:24:52;6.55;;;3.33;;
65387;SDS011;51992;53.528;49.474;2022-11-15T06:27:17;4.10;;;2.38;;
65387;SDS011;51992;53.528;49.474;2022-11-15T06:29:43;12.48;;;3.22;;
65387;SDS011;51992;53.528;49.474;2022-11-15T06:32:09;3.50;;;1.38;;
65387;SDS011;51992;53.528;49.474;2022-11-15T06:34:35;2.50;;;1.83;;
65387;SDS011;51992;53.528;49.474;2022-11-15T06:37:02;9.45;;;5.50;;
65387;SDS011;51992;53.528;49.474;2022-11-15T06:39:27;10.77;;;5.10;;
65387;SDS011;51992;53.528;49.474;2022-11-15T06:41:53;3.95;;;1.77;;
65387;SDS011;51992;53.528;49.474;2022-11-15T06:44:19;5.13;;;1.30;;
65387;SDS011;51992;53.528;49.474;2022-11-15T06:46:44;4.80;;;2.05;;
65387;SDS011;51992;53.528;49.474;2022-11-15T06:49:10;6.90;;;3.53;;
65387;SDS011;51992;53.528;49.474;2022-11-15T06:51:36;7.97;;;1.98;;
65387;SDS011;51992;53.528;49.474;2022-11-15T06:54:02;10.38;;;4.03;;
65387;SDS011;51992;53.528;49.474;2022-11-15T06:56:28;6.25;;;2.45;;
65387;SDS011;51992;53.528;49.474;2022-11-15T06:58:53;2.15;;;1.52;;
65387;SDS011;51992;53.528;49.474;2022-11-15T07:01:20;5.05;;;1.33;;
65387;SDS011;51992;53.528;49.474;2022-11-15T07:03:46;2.33;;;1.20;;
65387;SDS011;51992;53.528;49.474;2022-11-15T07:06:11;6.28;;;2.10;;
65387;SDS011;51992;53.528;49.474;2022-11-15T07:08:37;3.10;;;1.20;;
65387;SDS011;51992;53.528;49.474;2022-11-15T07:11:04;16.83;;;2.85;;
65387;SDS011;51992;53.528;49.474;2022-11-15T07:13:30;5.55;;;1.38;;
65387;SDS011;51992;53.528;49.474;2022-11-15T07:16:03;2.10;;;1.00;;
65387;SDS011;51992;53.528;49.474;2022-11-15T07:18:29;3.45;;;1.50;;
65387;SDS011;51992;53.528;49.474;2022-11-15T07:20:55;4.55;;;2.92;;
65387;SDS011;51992;53.528;49.474;2022-11-15T07:23:21;5.63;;;2.42;;
65387;SDS011;51992;53.528;49.474;2022-11-15T07:25:46;3.33;;;1.77;;
65387;SDS011;51992;53.528;49.474;2022-11-15T07:28:12;12.48;;;3.78;;
65387;SDS011;51992;53.528;49.474;2022-11-15T07:30:38;26.48;;;11.52;;
65387;SDS011;51992;53.528;49.474;2022-11-15T07:33:03;2.97;;;1.40;;
65387;SDS011;51992;53.528;49.474;2022-11-15T07:35:29;8.02;;;1.58;;
65387;SDS011;51992;53.528;49.474;2022-11-15T07:37:59;2.33;;;1.77;;
65387;SDS011;51992;53.528;49.474;2022-11-15T07:40:25;9.00;;;4.18;;
65387;SDS011;51992;53.528;49.474;2022-11-15T07:42:52;5.20;;;1.63;;
65387;SDS011;51992;53.528;49.474;2022-11-15T07:45:22;7.03;;;2.75;;
65387;SDS011;51992;53.528;49.474;2022-11-15T07:47:48;19.77;;;4.57;;
65387;SDS011;51992;53.528;49.474;2022-11-15T07:50:14;8.80;;;2.88;;
65387;SDS011;51992;53.528;49.474;2022-11-15T07:52:40;50.28;;;29.30;;
65387;SDS011;51992;53.528;49.474;2022-11-15T07:55:06;24.27;;;11.45;;
65387;SDS011;51992;53.528;49.474;2022-11-15T07:57:32;7.55;;;3.78;;
65387;SDS011;51992;53.528;49.474;2022-11-15T07:59:57;9.32;;;3.08;;
65387;SDS011;51992;53.528;49.474;2022-11-15T08:02:23;16.38;;;3.78;;
65387;SDS011;51992;53.528;49.474;2022-11-15T08:04:49;8.70;;;2.85;;
65387;SDS011;51992;53.528;49.474;2022-11-15T08:07:15;8.15;;;4.03;;
65387;SDS011;51992;53.528;49.474;2022-11-15T08:09:40;29.08;;;10.57;;
65387;SDS011;51992;53.528;49.474;2022-11-15T08:12:06;22.13;;;10.02;;
65387;SDS011;51992;53.528;49.474;2022-11-15T08:14:32;18.27;;;8.05;;
65387;SDS011;51992;53.528;49.474;2022-11-15T08:16:58;6.63;;;2.67;;
65387;SDS011;51992;53.528;49.474;2022-11-15T08:19:23;3.50;;;1.65;;
65387;SDS011;51992;53.528;49.474;2022-11-15T08:21:49;8.63;;;2.90;;
65387;SDS011;51992;53.528;49.474;2022-11-15T08:24:15;13.35;;;5.57;;
65387;SDS011;51992;53.528;49.474;2022-11-15T08:26:41;16.65;;;3.58;;
65387;SDS011;51992;53.528;49.474;2022-11-15T08:29:06;4.70;;;2.05;;
65387;SDS011;51992;53.528;49.474;2022-11-15T08:31:35;15.65;;;4.88;;
65387;SDS011;51992;53.528;49.474;2022-11-15T08:34:05;4.93;;;3.45;;
65387;SDS011;51992;53.528;49.474;2022-11-15T08:36:31;8.77;;;2.28;;
65387;SDS011;51992;53.528;49.474;2022-11-15T08:38:57;3.53;;;1.83;;
65387;SDS011;51992;53.528;49.474;2022-11-15T08:43:51;5.78;;;2.38;;
65387;SDS011;51992;53.528;49.474;2022-11-15T08:46:17;50.28;;;7.65;;
65387;SDS011;51992;53.528;49.474;2022-11-15T08:48:44;7.28;;;3.08;;
65387;SDS011;51992;53.528;49.474;2022-11-15T08:51:10;7.00;;;3.40;;
65387;SDS011;51992;53.528;49.474;2022-11-15T08:53:36;7.22;;;3.50;;
65387;SDS011;51992;53.528;49.474;2022-11-15T08:56:02;3.83;;;2.00;;
65387;SDS011;51992;53.528;49.474;2022-11-15T08:58:28;2.67;;;1.25;;
65387;SDS011;51992;53.528;49.474;2022-11-15T09:00:54;10.25;;;1.85;;
65387;SDS011;51992;53.528;49.474;2022-11-15T09:03:20;18.23;;;7.50;;
65387;SDS011;51992;53.528;49.474;2022-11-15T09:05:45;7.07;;;2.25;;
65387;SDS011;51992;53.528;49.474;2022-11-15T09:08:11;7.25;;;2.10;;
65387;SDS011;51992;53.528;49.474;2022-11-15T09:10:38;6.28;;;2.03;;
65387;SDS011;51992;53.528;49.474;2022-11-15T09:13:03;10.27;;;3.30;;
65387;SDS011;51992;53.528;49.474;2022-11-15T09:15:29;12.57;;;4.95;;
65387;SDS011;51992;53.528;49.474;2022-11-15T09:17:57;11.30;;;4.63;;
65387;SDS011;51992;53.528;49.474;2022-11-15T09:20:23;16.38;;;8.27;;
65387;SDS011;51992;53.528;49.474;2022-11-15T09:22:49;13.23;;;6.35;;
65387;SDS011;51992;53.528;49.474;2022-11-15T09:25:14;20.40;;;3.30;;
65387;SDS011;51992;53.528;49.474;2022-11-15T09:27:40;4.07;;;1.58;;
65387;SDS011;51992;53.528;49.474;2022-11-15T09:30:06;5.93;;;2.30;;
65387;SDS011;51992;53.528;49.474;2022-11-15T09:32:32;7.55;;;2.78;;
65387;SDS011;51992;53.528;49.474;2022-11-15T09:34:58;1.73;;;1.33;;
65387;SDS011;51992;53.528;49.474;2022-11-15T09:37:23;5.07;;;1.52;;
65387;SDS011;51992;53.528;49.474;2022-11-15T09:39:49;15.57;;;2.88;;
65387;SDS011;51992;53.528;49.474;2022-11-15T09:42:24;3.75;;;2.08;;
65387;SDS011;51992;53.528;49.474;2022-11-15T09:44:55;11.93;;;4.07;;
65387;SDS011;51992;53.528;49.474;2022-11-15T09:49:55;4.40;;;1.00;;
65387;SDS011;51992;53.528;49.474;2022-11-15T09:52:21;6.75;;;2.85;;
65387;SDS011;51992;53.528;49.474;2022-11-15T09:54:48;18.98;;;7.88;;
65387;SDS011;51992;53.528;49.474;2022-11-15T09:59:59;14.50;;;5.55;;
65387;SDS011;51992;53.528;49.474;2022-11-15T10:05:10;6.68;;;3.53;;
65387;SDS011;51992;53.528;49.474;2022-11-15T10:10:29;35.08;;;17.63;;
65387;SDS011;51992;53.528;49.474;2022-11-15T10:12:57;23.90;;;13.68;;
65387;SDS011;51992;53.528;49.474;2022-11-15T10:15:24;12.68;;;4.35;;
65387;SDS011;51992;53.528;49.474;2022-11-15T10:20:26;19.30;;;6.60;;
65387;SDS011;51992;53.528;49.474;2022-11-15T10:22:53;10.68;;;3.65;;
65387;SDS011;51992;53.528;49.474;2022-11-15T10:25:39;21.13;;;14.05;;
65387;SDS011;51992;53.528;49.474;2022-11-15T10:30:43;30.65;;;17.88;;
65387;SDS011;51992;53.528;49.474;2022-11-15T10:33:53;19.45;;;11.23;;
65387;SDS011;51992;53.528;49.474;2022-11-15T10:41:27;11.25;;;6.72;;
65387;SDS011;51992;53.528;49.474;2022-11-15T10:46:26;8.02;;;4.20;;
65387;SDS011;51992;53.528;49.474;2022-11-15T10:48:52;9.32;;;4.50;;
65387;SDS011;51992;53.528;49.474;2022-11-15T10:51:25;15.63;;;7.85;;
65387;SDS011;51992;53.528;49.474;2022-11-15T10:53:57;7.72;;;3.80;;
65387;SDS011;51992;53.528;49.474;2022-11-15T10:56:25;6.13;;;3.15;;
65387;SDS011;51992;53.528;49.474;2022-11-15T10:58:55;14.55;;;5.57;;
65387;SDS011;51992;53.528;49.474;2022-11-15T11:01:22;12.38;;;4.60;;
65387;SDS011;51992;53.528;49.474;2022-11-15T11:04:05;13.65;;;3.85;;
65387;SDS011;51992;53.528;49.474;2022-11-15T11:06:32;13.18;;;6.43;;
65387;SDS011;51992;53.528;49.474;2022-11-15T11:09:23;17.98;;;6.70;;
65387;SDS011;51992;53.528;49.474;2022-11-15T11:11:51;17.17;;;9.35;;
65387;SDS011;51992;53.528;49.474;2022-11-15T11:14:21;7.38;;;2.00;;
65387;SDS011;51992;53.528;49.474;2022-11-15T11:27:03;29.40;;;4.65;;
65387;SDS011;51992;53.528;49.474;2022-11-15T11:42:37;17.13;;;10.65;;
65387;SDS011;51992;53.528;49.474;2022-11-15T11:50:29;15.35;;;5.85;;
65387;SDS011;51992;53.528;49.474;2022-11-15T11:55:24;15.18;;;7.75;;
65387;SDS011;51992;53.528;49.474;2022-11-15T12:00:21;23.00;;;13.57;;
65387;SDS011;51992;53.528;49.474;2022-11-15T12:10:54;6.13;;;2.90;;
65387;SDS011;51992;53.528;49.474;2022-11-15T12:13:24;10.93;;;4.13;;
65387;SDS011;51992;53.528;49.474;2022-11-15T12:16:13;20.38;;;6.15;;
65387;SDS011;51992;53.528;49.474;2022-11-15T12:18:37;15.90;;;5.15;;
65387;SDS011;51992;53.528;49.474;2022-11-15T12:21:05;19.50;;;5.85;;
65387;SDS011;51992;53.528;49.474;2022-11-15T12:23:32;15.38;;;5.97;;
65387;SDS011;51992;53.528;49.474;2022-11-15T12:26:22;25.67;;;13.95;;
65387;SDS011;51992;53.528;49.474;2022-11-15T12:29:00;44.88;;;27.25;;
65387;SDS011;51992;53.528;49.474;2022-11-15T12:34:05;15.73;;;5.45;;
65387;SDS011;51992;53.528;49.474;2022-11-15T12:36:48;15.23;;;4.78;;
65387;SDS011;51992;53.528;49.474;2022-11-15T12:39:14;17.58;;;6.68;;
65387;SDS011;51992;53.528;49.474;2022-11-15T12:41:41;12.55;;;4.97;;
65387;SDS011;51992;53.528;49.474;2022-11-15T12:44:11;20.90;;;8.13;;
65387;SDS011;51992;53.528;49.474;2022-11-15T13:02:20;23.23;;;11.63;;
65387;SDS011;51992;53.528;49.474;2022-11-15T13:04:47;33.97;;;19.63;;
65387;SDS011;51992;53.528;49.474;2022-11-15T13:08:34;35.80;;;21.58;;
65387;SDS011;51992;53.528;49.474;2022-11-15T13:18:18;14.68;;;7.50;;
65387;SDS011;51992;53.528;49.474;2022-11-15T13:20:44;8.73;;;4.15;;
65387;SDS011;51992;53.528;49.474;2022-11-15T13:23:11;16.60;;;5.85;;
65387;SDS011;51992;53.528;49.474;2022-11-15T13:30:35;11.48;;;5.30;;
65387;SDS011;51992;53.528;49.474;2022-11-15T13:33:07;11.32;;;4.55;;
65387;SDS011;51992;53.528;49.474;2022-11-15T13:35:33;4.25;;;2.65;;
65387;SDS011;51992;53.528;49.474;2022-11-15T13:38:03;16.25;;;6.53;;
65387;SDS011;51992;53.528;49.474;2022-11-15T13:40:33;16.75;;;5.97;;
65387;SDS011;51992;53.528;49.474;2022-11-15T13:42:59;11.10;;;4.63;;
65387;SDS011;51992;53.528;49.474;2022-11-15T13:45:25;5.90;;;3.50;;
65387;SDS011;51992;53.528;49.474;2022-11-15T13:47:53;4.97;;;2.90;;
65387;SDS011;51992;53.528;49.474;2022-11-15T13:50:20;6.38;;;2.38;;
65387;SDS011;51992;53.528;49.474;2022-11-15T13:52:46;7.72;;;2.80;;
65387;SDS011;51992;53.528;49.474;2022-11-15T13:55:18;9.70;;;2.45;;
65387;SDS011;51992;53.528;49.474;2022-11-15T13:58:17;12.73;;;4.65;;
65387;SDS011;51992;53.528;49.474;2022-11-15T14:00:37;9.10;;;3.50;;
65387;SDS011;51992;53.528;49.474;2022-11-15T14:03:16;13.50;;;6.53;;
65387;SDS011;51992;53.528;49.474;2022-11-15T14:05:43;21.00;;;8.50;;
65387;SDS011;51992;53.528;49.474;2022-11-15T14:10:44;13.57;;;5.57;;
65387;SDS011;51992;53.528;49.474;2022-11-15T14:13:25;14.63;;;5.97;;
65387;SDS011;51992;53.528;49.474;2022-11-15T14:15:51;15.93;;;4.85;;
65387;SDS011;51992;53.528;49.474;2022-11-15T14:21:06;15.57;;;6.80;;
65387;SDS011;51992;53.528;49.474;2022-11-15T14:23:32;20.45;;;6.47;;
65387;SDS011;51992;53.528;49.474;2022-11-15T14:25:58;8.82;;;4.50;;
65387;SDS011;51992;53.528;49.474;2022-11-15T14:30:52;9.70;;;4.60;;
65387;SDS011;51992;53.528;49.474;2022-11-15T14:35:47;14.23;;;4.10;;
65387;SDS011;51992;53.528;49.474;2022-11-15T14:38:14;14.68;;;4.70;;
65387;SDS011;51992;53.528;49.474;2022-11-15T14:40:40;10.70;;;2.95;;
65387;SDS011;51992;53.528;49.474;2022-11-15T14:43:07;12.10;;;4.28;;
65387;SDS011;51992;53.528;49.474;2022-11-15T14:45:33;10.32;;;3.53;;
65387;SDS011;51992;53.528;49.474;2022-11-15T14:48:00;5.63;;;3.00;;
65387;SDS011;51992;53.528;49.474;2022-11-15T14:50:25;9.13;;;3.65;;
65387;SDS011;51992;53.528;49.474;2022-11-15T14:52:53;5.60;;;2.88;;
65387;SDS011;51992;53.528;49.474;2022-11-15T14:57:45;4.70;;;2.10;;
65387;SDS011;51992;53.528;49.474;2022-11-15T15:00:11;5.93;;;2.50;;
65387;SDS011;51992;53.528;49.474;2022-11-15T15:02:37;4.72;;;2.30;;
65387;SDS011;51992;53.528;49.474;2022-11-15T15:07:50;5.43;;;2.50;;
65387;SDS011;51992;53.528;49.474;2022-11-15T15:10:41;5.32;;;2.75;;
65387;SDS011;51992;53.528;49.474;2022-11-15T15:13:21;5.30;;;3.25;;
65387;SDS011;51992;53.528;49.474;2022-11-15T15:15:49;4.88;;;2.30;;
65387;SDS011;51992;53.528;49.474;2022-11-15T15:18:32;5.45;;;2.50;;
65387;SDS011;51992;53.528;49.474;2022-11-15T15:21:16;3.55;;;2.50;;
65387;SDS011;51992;53.528;49.474;2022-11-15T15:24:13;5.78;;;3.85;;
65387;SDS011;51992;53.528;49.474;2022-11-15T15:27:04;5.20;;;3.10;;
65387;SDS011;51992;53.528;49.474;2022-11-15T15:29:49;6.00;;;3.78;;
65387;SDS011;51992;53.528;49.474;2022-11-15T15:32:19;4.43;;;2.65;;
65387;SDS011;51992;53.528;49.474;2022-11-15T15:35:00;3.63;;;3.10;;
65387;SDS011;51992;53.528;49.474;2022-11-15T15:37:54;14.80;;;6.00;;
65387;SDS011;51992;53.528;49.474;2022-11-15T15:40:37;4.93;;;3.10;;
65387;SDS011;51992;53.528;49.474;2022-11-15T15:43:19;22.02;;;5.88;;
65387;SDS011;51992;53.528;49.474;2022-11-15T15:45:54;5.32;;;2.13;;
65387;SDS011;51992;53.528;49.474;2022-11-15T15:48:32;3.33;;;1.50;;
65387;SDS011;51992;53.528;49.474;2022-11-15T15:51:26;2.87;;;1.70;;
65387;SDS011;51992;53.528;49.474;2022-11-15T15:54:02;3.45;;;1.83;;
65387;SDS011;51992;53.528;49.474;2022-11-15T15:56:28;3.95;;;1.55;;
65387;SDS011;51992;53.528;49.474;2022-11-15T15:58:54;2.28;;;1.42;;
65387;SDS011;51992;53.528;49.474;2022-11-15T16:01:20;7.75;;;1.85;;
65387;SDS011;51992;53.528;49.474;2022-11-15T16:03:49;6.07;;;1.60;;
65387;SDS011;51992;53.528;49.474;2022-11-15T16:09:14;2.22;;;1.50;;
65387;SDS011;51992;53.528;49.474;2022-11-15T16:11:40;1.50;;;1.40;;
65387;SDS011;51992;53.528;49.474;2022-11-15T16:14:07;5.20;;;1.73;;
65387;SDS011;51992;53.528;49.474;2022-11-15T16:16:33;2.17;;;1.70;;
65387;SDS011;51992;53.528;49.474;2022-11-15T16:18:59;5.97;;;1.83;;
65387;SDS011;51992;53.528;49.474;2022-11-15T16:21:26;2.47;;;1.98;;
65387;SDS011;51992;53.528;49.474;2022-11-15T16:23:52;2.92;;;1.90;;
65387;SDS011;51992;53.528;49.474;2022-11-15T16:26:20;6.07;;;2.20;;
65387;SDS011;51992;53.528;49.474;2022-11-15T16:28:46;3.05;;;1.63;;
65387;SDS011;51992;53.528;49.474;2022-11-15T16:31:12;5.25;;;1.70;;
65387;SDS011;51992;53.528;49.474;2022-11-15T16:33:38;1.95;;;1.10;;
65387;SDS011;51992;53.528;49.474;2022-11-15T16:36:10;2.20;;;2.00;;
65387;SDS011;51992;53.528;49.474;2022-11-15T16:38:38;6.35;;;4.70;;
65387;SDS011;51992;53.528;49.474;2022-11-15T16:41:04;4.07;;;3.63;;
65387;SDS011;51992;53.528;49.474;2022-11-15T16:43:30;18.85;;;11.93;;
65387;SDS011;51992;53.528;49.474;2022-11-15T16:45:56;25.38;;;13.63;;
65387;SDS011;51992;53.528;49.474;2022-11-15T16:48:25;16.08;;;8.80;;
65387;SDS011;51992;53.528;49.474;2022-11-15T16:50:55;26.58;;;15.38;;
65387;SDS011;51992;53.528;49.474;2022-11-15T16:53:21;26.05;;;15.13;;
65387;SDS011;51992;53.528;49.474;2022-11-15T16:55:48;35.38;;;20.00;;
65387;SDS011;51992;53.528;49.474;2022-11-15T16:58:14;31.25;;;18.58;;
65387;SDS011;51992;53.528;49.474;2022-11-15T17:00:39;18.60;;;9.75;;
65387;SDS011;51992;53.528;49.474;2022-11-15T17:03:05;28.05;;;13.75;;
65387;SDS011;51992;53.528;49.474;2022-11-15T17:05:31;31.38;;;18.25;;
65387;SDS011;51992;53.528;49.474;2022-11-15T17:07:57;35.28;;;21.90;;